Time;durP1;ratioP1;P1;durP2;ratioP2;P2;SDS_P1;SDS_P2;PMS_P1;PMS_P2;Temp;Humidity;BMP_temperature;BMP_pressure;BME280_temperature;BME280_humidity;BME280_pressure;Samples;Min_cycle;Max_cycle;Signal;HPM_P1;HPM_P2
2021/07/06 00:00:20;;;;;;;6.55;2.33;;;;;;;16.47;100.00;92852.25;5051745;28;20496;-92
2021/07/06 00:02:49;;;;;;;2.50;1.88;;;;;;;16.47;100.00;92849.66;5051652;28;20143;-92
2021/07/06 00:05:16;;;;;;;2.55;1.73;;;;;;;16.42;100.00;92843.41;5051771;28;20063;-92
2021/07/06 00:07:46;;;;;;;3.08;1.95;;;;;;;16.38;100.00;92854.56;5051677;28;20068;-92
2021/07/06 00:10:14;;;;;;;2.08;1.70;;;;;;;16.34;100.00;92858.69;5032260;28;20049;-93
2021/07/06 00:12:42;;;;;;;2.50;1.80;;;;;;;16.01;100.00;92812.94;5033660;28;20397;-91
2021/07/06 00:15:12;;;;;;;2.97;1.73;;;;;;;16.27;100.00;92858.91;5051584;28;20045;-92
2021/07/06 00:17:39;;;;;;;1.75;1.52;;;;;;;16.24;100.00;92860.19;5051203;28;20053;-92
2021/07/06 00:20:09;;;;;;;1.77;1.27;;;;;;;16.24;100.00;92856.84;5051347;28;20057;-92
2021/07/06 00:22:36;;;;;;;3.45;1.73;;;;;;;16.25;100.00;92856.56;5051170;28;20099;-92
2021/07/06 00:25:06;;;;;;;2.90;2.33;;;;;;;16.23;100.00;92861.22;5051603;28;20053;-93
2021/07/06 00:27:33;;;;;;;3.13;2.05;;;;;;;16.16;100.00;92848.50;5030703;28;20052;-93
2021/07/06 00:30:00;;;;;;;5.40;2.35;;;;;;;16.27;100.00;92862.28;5011758;28;20049;-92
2021/07/06 00:32:27;;;;;;;2.97;1.88;;;;;;;16.20;100.00;92859.13;5011622;28;20061;-92
2021/07/06 00:34:54;;;;;;;2.25;1.38;;;;;;;16.20;100.00;92860.97;5017770;28;20053;-92
2021/07/06 00:37:20;;;;;;;2.25;1.63;;;;;;;16.17;100.00;92860.41;5030916;28;20053;-92
2021/07/06 00:39:47;;;;;;;2.90;1.38;;;;;;;16.17;100.00;92870.78;5030334;28;20053;-92
2021/07/06 00:42:16;;;;;;;2.30;1.85;;;;;;;16.19;100.00;92867.94;5031035;28;20061;-92
2021/07/06 00:44:43;;;;;;;2.30;1.90;;;;;;;16.13;100.00;92872.34;5031026;28;20405;-91
2021/07/06 00:47:09;;;;;;;2.35;1.92;;;;;;;16.12;100.00;92872.59;5031034;28;20049;-92
2021/07/06 00:49:36;;;;;;;4.88;3.13;;;;;;;16.01;100.00;92872.53;5031152;28;20115;-92
2021/07/06 00:52:04;;;;;;;3.42;1.85;;;;;;;16.00;100.00;92873.56;5030812;28;20486;-93
2021/07/06 00:54:31;;;;;;;2.22;1.38;;;;;;;16.01;100.00;92877.72;5030872;28;20056;-92
2021/07/06 00:56:59;;;;;;;3.30;2.00;;;;;;;16.00;100.00;92876.16;5030777;28;20085;-91
2021/07/06 00:59:27;;;;;;;1.85;1.73;;;;;;;15.99;100.00;92873.81;5030825;28;20053;-92
2021/07/06 01:01:54;;;;;;;3.53;1.80;;;;;;;15.96;100.00;92882.84;5030808;28;20053;-92
2021/07/06 01:04:21;;;;;;;2.63;1.77;;;;;;;15.85;100.00;92879.41;5030690;28;20453;-92
2021/07/06 01:06:47;;;;;;;2.80;1.92;;;;;;;15.85;100.00;92886.41;5031014;28;20049;-92
2021/07/06 01:09:14;;;;;;;2.42;2.13;;;;;;;15.82;100.00;92886.88;5030739;28;20045;-93
2021/07/06 01:11:41;;;;;;;4.18;2.00;;;;;;;15.86;100.00;92875.78;5030827;28;20422;-93
2021/07/06 01:14:08;;;;;;;3.20;2.35;;;;;;;15.90;100.00;92870.88;5017309;28;20052;-92
2021/07/06 01:16:36;;;;;;;3.38;2.08;;;;;;;15.82;100.00;92877.31;5011041;28;20077;-92
2021/07/06 01:19:05;;;;;;;3.50;2.38;;;;;;;15.72;100.00;92878.03;5010759;28;20484;-87
2021/07/06 01:21:31;;;;;;;2.20;1.98;;;;;;;15.65;100.00;92874.09;5011124;28;20046;-92
2021/07/06 01:24:00;;;;;;;3.05;2.33;;;;;;;15.69;100.00;92877.75;5011105;28;20104;-92
2021/07/06 01:26:26;;;;;;;2.40;1.65;;;;;;;15.70;100.00;92885.25;5011050;28;20055;-92
2021/07/06 01:28:55;;;;;;;1.65;1.52;;;;;;;15.62;100.00;92872.78;5010934;28;20046;-92
2021/07/06 01:31:22;;;;;;;4.63;1.85;;;;;;;15.68;100.00;92883.94;5010832;28;20116;-91
2021/07/06 01:33:48;;;;;;;2.13;1.65;;;;;;;15.63;100.00;92880.31;5010730;28;20050;-93
2021/07/06 01:36:17;;;;;;;4.20;1.80;;;;;;;15.62;100.00;92888.31;5011086;28;20057;-92
2021/07/06 01:38:44;;;;;;;2.92;2.05;;;;;;;15.57;100.00;92883.09;5010640;28;20056;-92
2021/07/06 01:41:13;;;;;;;2.58;1.88;;;;;;;15.51;100.00;92887.47;5010942;28;20046;-92
2021/07/06 01:43:39;;;;;;;3.13;2.08;;;;;;;15.47;100.00;92889.75;5011697;28;20498;-92
2021/07/06 01:46:06;;;;;;;1.80;1.40;;;;;;;15.42;100.00;92881.19;5014363;28;20050;-92
2021/07/06 01:48:33;;;;;;;3.05;2.20;;;;;;;15.50;100.00;92888.50;5014453;28;20490;-91
2021/07/06 01:51:00;;;;;;;2.70;1.77;;;;;;;15.49;100.00;92879.16;5014382;28;20096;-92
2021/07/06 01:53:27;;;;;;;3.38;1.77;;;;;;;15.50;100.00;92885.91;5014306;28;20054;-92
2021/07/06 01:55:54;;;;;;;3.28;2.25;;;;;;;15.59;100.00;92883.63;5014479;28;20053;-91
2021/07/06 01:58:25;;;;;;;3.45;2.40;;;;;;;15.52;100.00;92876.09;5016510;28;20057;-90
2021/07/06 02:00:55;;;;;;;4.20;3.20;;;;;;;15.49;100.00;92877.38;5034374;28;20071;-90
2021/07/06 02:03:22;;;;;;;1.98;1.70;;;;;;;15.47;100.00;92871.66;5034168;28;20045;-92
2021/07/06 02:05:53;;;;;;;3.05;1.70;;;;;;;15.37;100.00;92871.59;5033945;28;20545;-91
2021/07/06 02:08:21;;;;;;;3.33;2.05;;;;;;;15.36;100.00;92880.38;5028955;28;20116;-91
2021/07/06 02:10:50;;;;;;;3.00;2.08;;;;;;;15.29;100.00;92880.59;5014234;28;20437;-91
2021/07/06 02:13:19;;;;;;;2.83;1.55;;;;;;;15.22;100.00;92874.81;5013849;28;20053;-91
2021/07/06 02:15:49;;;;;;;3.08;1.67;;;;;;;15.14;100.00;92876.03;5013947;28;20133;-91
2021/07/06 02:18:19;;;;;;;4.70;2.30;;;;;;;15.18;100.00;92876.34;5031906;28;20057;-91
2021/07/06 02:20:46;;;;;;;4.72;2.97;;;;;;;15.15;100.00;92885.41;5033680;28;20049;-91
2021/07/06 02:23:12;;;;;;;3.97;2.30;;;;;;;15.12;100.00;92888.47;5033609;28;20659;-91
2021/07/06 02:25:39;;;;;;;3.65;2.05;;;;;;;15.07;100.00;92891.00;5022775;28;20052;-92
2021/07/06 02:28:06;;;;;;;3.65;2.15;;;;;;;15.10;100.00;92896.47;5033786;28;20045;-91
2021/07/06 02:30:33;;;;;;;3.15;2.10;;;;;;;15.08;100.00;92897.72;5033431;28;20092;-91
2021/07/06 02:33:01;;;;;;;2.80;1.70;;;;;;;15.12;100.00;92893.63;5033605;28;20095;-91
2021/07/06 02:35:28;;;;;;;2.65;2.00;;;;;;;15.14;100.00;92890.81;5033545;28;20045;-90
2021/07/06 02:37:56;;;;;;;2.83;1.60;;;;;;;15.14;100.00;92895.97;5033338;28;20052;-90
2021/07/06 02:40:23;;;;;;;3.25;1.35;;;;;;;15.16;100.00;92899.88;5033221;28;20057;-90
2021/07/06 02:42:50;;;;;;;1.60;1.13;;;;;;;15.12;100.00;92895.44;5033235;28;20053;-91
2021/07/06 02:45:18;;;;;;;4.85;2.47;;;;;;;15.14;100.00;92899.31;5033391;28;20061;-92
2021/07/06 02:47:46;;;;;;;3.85;2.40;;;;;;;15.09;100.00;92894.91;5033159;28;20513;-91
2021/07/06 02:50:15;;;;;;;2.70;2.00;;;;;;;15.07;100.00;92904.72;5033171;28;20437;-91
2021/07/06 02:52:42;;;;;;;3.00;1.67;;;;;;;15.04;100.00;92899.25;5030073;28;20057;-91
2021/07/06 02:55:10;;;;;;;2.45;1.45;;;;;;;15.09;100.00;92901.91;5032992;28;20489;-91
2021/07/06 02:57:38;;;;;;;2.13;1.90;;;;;;;15.00;100.00;92903.34;5033167;28;20107;-91
2021/07/06 03:00:08;;;;;;;4.55;1.52;;;;;;;14.99;100.00;92904.38;5033140;28;20052;-90
2021/07/06 03:02:35;;;;;;;3.00;2.13;;;;;;;15.05;100.00;92906.00;5032938;28;20045;-90
2021/07/06 03:05:01;;;;;;;2.30;1.38;;;;;;;15.07;100.00;92902.13;5032874;28;20049;-90
2021/07/06 03:07:29;;;;;;;5.13;2.92;;;;;;;15.07;100.00;92909.91;5032700;28;20520;-91
2021/07/06 03:09:56;;;;;;;2.95;1.90;;;;;;;15.06;100.00;92912.72;5014683;28;20316;-90
2021/07/06 03:12:23;;;;;;;2.97;1.88;;;;;;;15.08;100.00;92910.66;5013136;28;20042;-89
2021/07/06 03:14:50;;;;;;;3.33;2.03;;;;;;;15.13;100.00;92915.13;5032186;28;20445;-89
2021/07/06 03:17:17;;;;;;;8.70;2.97;;;;;;;15.06;100.00;92916.09;5032735;28;20418;-91
2021/07/06 03:19:43;;;;;;;4.30;2.08;;;;;;;15.10;100.00;92919.75;5032545;28;20045;-91
2021/07/06 03:22:10;;;;;;;2.95;2.25;;;;;;;15.10;100.00;92924.16;5032496;28;20045;-91
2021/07/06 03:24:38;;;;;;;3.83;1.75;;;;;;;15.07;100.00;92919.44;5032483;28;20410;-90
2021/07/06 03:27:05;;;;;;;6.13;2.10;;;;;;;15.19;100.00;92921.91;5032177;28;20050;-90
2021/07/06 03:29:32;;;;;;;4.40;1.88;;;;;;;15.08;100.00;92906.28;5032383;28;20053;-90
2021/07/06 03:31:59;;;;;;;2.80;2.10;;;;;;;15.23;100.00;92915.97;5032407;28;20045;-90
2021/07/06 03:34:26;;;;;;;3.53;2.65;;;;;;;15.18;100.00;92923.69;5032236;28;20057;-91
2021/07/06 03:36:53;;;;;;;3.85;1.77;;;;;;;15.15;100.00;92926.00;5032263;28;20049;-90
2021/07/06 03:39:20;;;;;;;2.05;1.50;;;;;;;15.10;100.00;92942.25;5032576;28;20458;-90
2021/07/06 03:41:48;;;;;;;3.63;2.55;;;;;;;15.10;100.00;92932.66;5032259;28;20046;-89
2021/07/06 03:44:15;;;;;;;1.90;1.58;;;;;;;15.09;100.00;92940.69;5032113;28;20057;-91
2021/07/06 03:46:41;;;;;;;2.08;1.60;;;;;;;15.07;100.00;92938.34;5032161;28;20041;-91
2021/07/06 03:49:08;;;;;;;3.75;2.58;;;;;;;15.10;100.00;92950.78;5031802;28;20045;-90
2021/07/06 03:51:35;;;;;;;2.08;1.65;;;;;;;15.10;100.00;92943.03;5032152;28;20437;-91
2021/07/06 03:54:02;;;;;;;2.45;1.60;;;;;;;15.15;100.00;92946.69;5031976;28;20050;-90
2021/07/06 03:56:29;;;;;;;4.50;2.00;;;;;;;15.09;100.00;92945.88;5031942;28;20046;-90
2021/07/06 03:58:57;;;;;;;5.47;2.65;;;;;;;15.15;100.00;92944.91;5031744;28;20057;-90
2021/07/06 04:01:24;;;;;;;7.95;2.10;;;;;;;15.20;100.00;92939.78;5031829;28;20061;-90
2021/07/06 04:03:51;;;;;;;3.10;2.30;;;;;;;15.23;100.00;92947.03;5031664;28;20512;-90
2021/07/06 04:06:17;;;;;;;2.95;2.10;;;;;;;15.24;100.00;92940.06;5031237;28;20057;-90
2021/07/06 04:08:44;;;;;;;2.47;1.92;;;;;;;15.31;100.00;92930.28;5031571;28;20095;-89
2021/07/06 04:11:11;;;;;;;5.25;2.75;;;;;;;15.44;100.00;92936.06;5031533;28;20425;-90
2021/07/06 04:13:38;;;;;;;4.22;1.83;;;;;;;15.53;100.00;92947.53;5030893;28;20053;-91
2021/07/06 04:16:07;;;;;;;9.55;3.38;;;;;;;15.65;100.00;92954.38;5031389;28;20111;-90
2021/07/06 04:18:34;;;;;;;3.17;1.58;;;;;;;15.75;100.00;92960.38;5031121;28;20060;-90
2021/07/06 04:21:00;;;;;;;3.15;2.10;;;;;;;15.72;100.00;92942.78;5031534;28;20053;-91
2021/07/06 04:23:27;;;;;;;2.05;1.55;;;;;;;15.88;100.00;92951.41;5031461;28;20045;-90
2021/07/06 04:25:54;;;;;;;2.80;2.03;;;;;;;15.81;100.00;92957.84;5031334;28;20065;-90
2021/07/06 04:28:21;;;;;;;2.97;2.08;;;;;;;15.93;100.00;92958.50;5031214;28;20500;-90
2021/07/06 04:30:48;;;;;;;6.28;3.85;;;;;;;15.99;100.00;92957.50;5031082;28;20045;-91
2021/07/06 04:33:16;;;;;;;3.92;2.08;;;;;;;16.10;100.00;92965.34;5031149;28;20053;-90
2021/07/06 04:35:43;;;;;;;3.30;1.77;;;;;;;15.99;100.00;92941.16;5031257;28;20503;-90
2021/07/06 04:38:10;;;;;;;6.97;2.65;;;;;;;16.24;100.00;92974.22;5030962;28;20497;-90
2021/07/06 04:40:37;;;;;;;2.10;1.70;;;;;;;16.32;100.00;92974.75;5031170;28;20049;-91
2021/07/06 04:43:05;;;;;;;3.20;2.22;;;;;;;16.37;100.00;92978.19;5030978;28;20045;-91
2021/07/06 04:45:33;;;;;;;6.40;2.75;;;;;;;16.44;100.00;92977.97;5031202;28;20486;-91
2021/07/06 04:48:00;;;;;;;4.47;2.47;;;;;;;16.50;100.00;92987.31;5031114;28;20045;-91
2021/07/06 04:50:28;;;;;;;5.22;2.90;;;;;;;16.61;100.00;92992.56;5030895;28;20060;-91
2021/07/06 04:52:55;;;;;;;4.95;2.85;;;;;;;16.67;100.00;92997.50;5031027;28;20057;-91
2021/07/06 04:55:22;;;;;;;4.90;3.33;;;;;;;16.75;100.00;92993.66;5030947;28;20042;-92
2021/07/06 04:57:49;;;;;;;4.75;4.25;;;;;;;16.82;100.00;92994.19;5030802;28;20049;-91
2021/07/06 05:00:17;;;;;;;4.43;2.50;;;;;;;16.94;100.00;92995.81;5030934;28;20049;-92
2021/07/06 05:02:45;;;;;;;5.18;3.67;;;;;;;17.03;100.00;92996.13;5030889;28;20144;-93
2021/07/06 05:05:12;;;;;;;4.25;3.65;;;;;;;17.12;100.00;92991.97;5030743;28;20057;-91
2021/07/06 05:07:41;;;;;;;10.45;3.55;;;;;;;17.26;100.00;92994.13;5030795;28;20049;-91
2021/07/06 05:10:10;;;;;;;3.63;2.80;;;;;;;17.36;100.00;93000.09;5030715;28;20049;-91
2021/07/06 05:12:37;;;;;;;3.13;2.65;;;;;;;17.45;100.00;93002.97;5030933;28;20462;-91
2021/07/06 05:15:06;;;;;;;6.38;3.22;;;;;;;17.58;100.00;93000.91;5030699;28;20045;-91
2021/07/06 05:17:33;;;;;;;3.95;3.03;;;;;;;17.62;100.00;92988.97;5031587;28;20045;-90
2021/07/06 05:20:00;;;;;;;3.25;2.53;;;;;;;17.81;100.00;93001.47;5034808;28;20421;-90
2021/07/06 05:22:26;;;;;;;4.30;2.95;;;;;;;18.00;100.00;93012.09;5034677;28;20572;-90
2021/07/06 05:24:55;;;;;;;3.97;2.30;;;;;;;18.15;100.00;93019.16;5034586;28;20095;-90
2021/07/06 05:27:21;;;;;;;3.75;2.70;;;;;;;18.27;100.00;93017.03;5034773;28;20050;-88
2021/07/06 05:29:48;;;;;;;4.10;2.35;;;;;;;18.41;100.00;93017.28;5034879;28;20069;-89
2021/07/06 05:32:19;;;;;;;7.25;3.90;;;;;;;18.63;100.00;93020.63;5034763;28;20041;-88
2021/07/06 05:34:46;;;;;;;4.63;2.38;;;;;;;18.76;100.00;93020.06;5034580;28;20042;-88
2021/07/06 05:37:13;;;;;;;4.43;3.15;;;;;;;18.91;100.00;93024.44;5034439;28;20053;-89
2021/07/06 05:39:40;;;;;;;12.25;4.03;;;;;;;19.10;100.00;93016.06;5034323;28;20053;-88
2021/07/06 05:42:09;;;;;;;3.22;2.13;;;;;;;19.31;100.00;93014.13;5034553;28;20049;-88
2021/07/06 05:44:38;;;;;;;4.05;2.50;;;;;;;19.52;100.00;93016.63;5034495;28;20091;-88
2021/07/06 05:47:06;;;;;;;4.47;2.88;;;;;;;19.63;100.00;93012.91;5034212;28;20060;-88
2021/07/06 05:49:33;;;;;;;3.97;2.90;;;;;;;19.92;100.00;93023.66;5032123;28;20120;-87
2021/07/06 05:52:00;;;;;;;3.08;2.53;;;;;;;20.12;100.00;93027.94;5014081;28;20559;-87
2021/07/06 05:54:26;;;;;;;4.93;3.53;;;;;;;20.28;97.98;93020.78;5014082;28;20045;-88
2021/07/06 05:56:53;;;;;;;4.50;2.83;;;;;;;20.22;96.52;93014.81;5013212;28;20049;-88
2021/07/06 05:59:21;;;;;;;4.40;3.45;;;;;;;20.48;97.71;93027.63;5014324;28;20049;-88
2021/07/06 06:01:48;;;;;;;4.25;2.65;;;;;;;20.74;97.27;93027.34;5029536;28;20056;-88
2021/07/06 06:04:16;;;;;;;2.90;2.38;;;;;;;20.95;94.26;93033.19;5033983;28;20045;-88
2021/07/06 06:06:43;;;;;;;12.40;4.00;;;;;;;21.22;93.41;93029.22;5033921;28;20239;-88
2021/07/06 06:09:10;;;;;;;3.90;2.40;;;;;;;21.45;90.67;93029.44;5034394;28;20140;-88
2021/07/06 06:11:36;;;;;;;10.25;3.42;;;;;;;21.30;88.53;93027.03;5034128;28;20057;-87
2021/07/06 06:14:03;;;;;;;5.30;3.10;;;;;;;21.65;89.72;93019.00;5033886;28;20521;-84
2021/07/06 06:16:31;;;;;;;6.55;3.10;;;;;;;21.92;87.72;93017.56;5033829;28;20037;-88
2021/07/06 06:18:58;;;;;;;2.80;2.38;;;;;;;22.29;85.70;93024.56;5033575;28;20049;-88
2021/07/06 06:21:26;;;;;;;3.55;2.17;;;;;;;22.57;79.64;93015.22;5033906;28;20057;-88
2021/07/06 06:23:53;;;;;;;5.28;3.33;;;;;;;22.96;81.48;93030.44;5033802;28;20045;-86
2021/07/06 06:26:19;;;;;;;2.72;1.88;;;;;;;23.30;78.78;93025.88;5033774;28;20103;-87
2021/07/06 06:28:46;;;;;;;3.35;2.10;;;;;;;23.49;79.51;93015.28;5033266;28;20045;-89
2021/07/06 06:31:13;;;;;;;4.60;2.72;;;;;;;23.92;76.85;93023.00;5033345;28;20068;-87
2021/07/06 06:33:41;;;;;;;8.93;3.50;;;;;;;24.07;76.46;93022.63;5033420;28;20391;-86
2021/07/06 06:36:08;;;;;;;3.53;2.40;;;;;;;24.22;74.12;93015.50;5033391;28;20493;-88
2021/07/06 06:38:35;;;;;;;3.58;2.42;;;;;;;24.55;75.35;93023.88;5033384;28;20410;-84
2021/07/06 06:41:02;;;;;;;3.85;1.65;;;;;;;24.84;73.14;93019.19;5033223;28;20501;-85
2021/07/06 06:43:28;;;;;;;2.35;1.92;;;;;;;24.90;71.49;93020.63;5033413;28;20409;-84
2021/07/06 06:45:55;;;;;;;3.95;2.60;;;;;;;25.12;70.06;93021.59;5033210;28;20053;-88
2021/07/06 06:48:22;;;;;;;3.97;2.22;;;;;;;25.32;69.06;93022.88;5018217;28;20041;-84
2021/07/06 06:50:50;;;;;;;4.97;2.38;;;;;;;25.48;70.64;93017.97;5029764;28;20053;-85
2021/07/06 06:53:17;;;;;;;5.10;2.40;;;;;;;25.61;66.94;93013.66;5033156;28;20452;-87
2021/07/06 06:55:43;;;;;;;3.28;2.25;;;;;;;25.90;67.27;93016.75;5008629;28;397302;-87
2021/07/06 06:58:10;;;;;;;5.50;3.55;;;;;;;26.10;67.84;93022.47;5032623;28;20099;-83
2021/07/06 07:00:37;;;;;;;4.88;2.60;;;;;;;26.41;67.15;93021.47;5032831;28;20460;-87
2021/07/06 07:03:04;;;;;;;3.65;2.53;;;;;;;25.86;66.74;93023.69;5032965;28;20056;-88
2021/07/06 07:05:30;;;;;;;4.40;2.45;;;;;;;26.27;67.75;93022.47;5033076;28;20104;-87
2021/07/06 07:07:58;;;;;;;2.97;1.70;;;;;;;26.54;66.40;93014.47;5032898;28;20057;-87
2021/07/06 07:10:26;;;;;;;3.22;1.83;;;;;;;26.99;63.15;93015.09;5032963;28;20099;-86
2021/07/06 07:12:56;;;;;;;3.88;2.25;;;;;;;27.07;61.02;93020.31;5032767;28;20060;-86
2021/07/06 07:15:23;;;;;;;3.03;1.98;;;;;;;27.24;59.73;93017.91;5032524;28;20076;-87
2021/07/06 07:17:50;;;;;;;2.92;2.10;;;;;;;27.37;63.26;93013.47;5032787;28;20057;-87
2021/07/06 07:20:17;;;;;;;2.75;2.13;;;;;;;27.56;62.60;93015.69;5032536;28;20050;-86
2021/07/06 07:22:44;;;;;;;3.67;2.05;;;;;;;27.65;61.54;93011.16;5032619;28;20046;-86
2021/07/06 07:25:14;;;;;;;10.60;2.53;;;;;;;27.93;62.21;93012.47;5032506;28;20053;-84
2021/07/06 07:27:40;;;;;;;4.22;1.83;;;;;;;28.09;60.12;93008.13;5032131;28;20115;-86
2021/07/06 07:30:09;;;;;;;3.55;2.42;;;;;;;28.12;60.13;92999.56;5032603;28;20460;-87
2021/07/06 07:32:35;;;;;;;3.05;2.45;;;;;;;28.43;60.32;93002.06;5032513;28;20062;-87
2021/07/06 07:35:02;;;;;;;4.22;2.50;;;;;;;28.75;59.60;92994.41;5032271;28;20087;-84
2021/07/06 07:37:29;;;;;;;4.95;3.35;;;;;;;28.99;58.84;92998.16;5032212;28;20493;-82
2021/07/06 07:39:56;;;;;;;3.33;1.80;;;;;;;29.04;57.35;92997.94;5032195;28;20045;-85
2021/07/06 07:42:24;;;;;;;5.82;1.88;;;;;;;29.00;56.98;93002.34;5031008;28;20087;-84
2021/07/06 07:44:51;;;;;;;3.20;2.20;;;;;;;28.84;55.44;93010.94;5032440;28;20053;-87
2021/07/06 07:47:18;;;;;;;2.95;1.52;;;;;;;28.54;56.28;93005.84;5032340;28;20470;-84
2021/07/06 07:49:45;;;;;;;4.50;3.20;;;;;;;28.46;58.57;92996.91;5032406;28;20041;-85
2021/07/06 07:52:11;;;;;;;4.05;2.63;;;;;;;28.93;58.50;93005.56;5031991;28;20057;-83
2021/07/06 07:54:38;;;;;;;4.22;2.33;;;;;;;29.11;57.81;92986.81;5032081;28;20112;-83
2021/07/06 07:57:07;;;;;;;3.08;1.65;;;;;;;29.04;56.38;92993.44;5031786;28;20049;-85
2021/07/06 07:59:36;;;;;;;3.78;1.98;;;;;;;29.08;56.55;92993.56;5031732;28;20095;-81
2021/07/06 08:02:03;;;;;;;3.28;1.92;;;;;;;29.18;57.47;92997.59;5031730;28;20042;-85
2021/07/06 08:04:29;;;;;;;2.55;1.70;;;;;;;29.28;55.57;92997.16;5032098;28;20188;-84
2021/07/06 08:06:56;;;;;;;2.55;1.40;;;;;;;28.99;53.15;92998.97;5032244;28;20049;-87
2021/07/06 08:09:23;;;;;;;4.63;1.83;;;;;;;27.70;55.40;93013.59;5031713;28;20489;-88
2021/07/06 08:11:50;;;;;;;3.30;2.28;;;;;;;27.88;57.71;93002.88;5031578;28;20091;-83
2021/07/06 08:14:16;;;;;;;3.10;1.88;;;;;;;28.41;54.51;93005.81;5031618;28;20103;-84
2021/07/06 08:16:45;;;;;;;2.13;1.13;;;;;;;28.84;55.56;93010.16;5031734;28;20053;-84
2021/07/06 08:19:11;;;;;;;2.45;1.35;;;;;;;28.88;53.68;93000.50;5031601;28;20052;-84
2021/07/06 08:21:38;;;;;;;2.55;1.52;;;;;;;28.99;50.30;92987.59;5031378;28;20497;-86
2021/07/06 08:24:05;;;;;;;1.52;0.85;;;;;;;29.41;52.63;92999.78;5031348;28;20091;-85
2021/07/06 08:26:32;;;;;;;5.38;1.65;;;;;;;29.62;52.35;93007.56;5031245;28;20119;-85
2021/07/06 08:28:59;;;;;;;2.97;1.42;;;;;;;28.71;52.19;93006.72;5031467;28;20050;-89
2021/07/06 08:31:26;;;;;;;1.75;1.00;;;;;;;28.79;52.96;93008.50;5031361;28;20425;-86
2021/07/06 08:33:54;;;;;;;2.63;1.60;;;;;;;29.09;50.03;92997.72;5031244;28;20642;-86
2021/07/06 08:36:21;;;;;;;4.43;1.95;;;;;;;27.91;52.61;93007.50;5031155;28;20561;-84
2021/07/06 08:38:47;;;;;;;2.13;1.23;;;;;;;27.73;54.53;93001.63;5031087;28;20409;-88
2021/07/06 08:41:15;;;;;;;1.70;1.00;;;;;;;27.91;53.84;92999.59;5031152;28;20053;-83
2021/07/06 08:43:41;;;;;;;4.85;1.17;;;;;;;28.09;52.58;93002.84;5031179;28;20049;-85
2021/07/06 08:46:08;;;;;;;2.20;1.30;;;;;;;28.08;53.36;93011.09;5031241;28;20049;-84
2021/07/06 08:48:36;;;;;;;2.25;0.98;;;;;;;27.54;52.95;93004.69;5031109;28;20049;-87
2021/07/06 08:51:05;;;;;;;1.63;0.93;;;;;;;27.89;53.11;93007.06;5030974;28;20095;-86
2021/07/06 08:53:32;;;;;;;1.83;1.02;;;;;;;28.34;50.47;93005.59;5027965;28;20067;-84
2021/07/06 08:55:59;;;;;;;2.40;1.00;;;;;;;27.99;50.36;92977.63;5030928;28;20045;-87
2021/07/06 08:58:26;;;;;;;1.83;0.73;;;;;;;28.03;53.21;93001.50;5031977;28;20073;-87
2021/07/06 09:00:53;;;;;;;1.73;1.05;;;;;;;28.33;51.66;92998.00;5031188;28;20053;-87
2021/07/06 09:03:20;;;;;;;6.80;1.40;;;;;;;28.58;52.21;93003.31;5030760;28;20103;-83
2021/07/06 09:05:47;;;;;;;1.95;1.10;;;;;;;29.22;51.77;92987.91;5030631;28;20057;-85
2021/07/06 09:08:18;;;;;;;2.80;0.85;;;;;;;29.78;49.33;92989.13;5030951;28;20045;-86
2021/07/06 09:10:45;;;;;;;1.80;1.05;;;;;;;29.79;48.13;92984.56;5030761;28;20081;-81
2021/07/06 09:13:26;;;;;;;2.15;1.15;;;;;;;28.75;48.35;92999.69;5030757;28;20049;-88
2021/07/06 09:15:55;;;;;;;2.20;1.40;;;;;;;27.98;50.27;93007.78;5030821;28;20445;-89
2021/07/06 09:18:22;;;;;;;2.45;1.40;;;;;;;27.41;51.07;93002.00;5030947;28;20391;-87
2021/07/06 09:21:03;;;;;;;1.88;0.98;;;;;;;27.05;52.34;92995.38;5030738;28;20116;-91
2021/07/06 09:23:33;;;;;;;4.13;2.47;;;;;;;27.27;53.03;92989.06;5030809;28;20045;-89
2021/07/06 09:26:05;;;;;;;3.25;1.45;;;;;;;26.96;53.31;92995.41;5030630;28;20061;-92
2021/07/06 09:28:34;;;;;;;2.28;1.70;;;;;;;26.73;54.61;92989.59;5030571;28;20475;-92
2021/07/06 09:31:17;;;;;;;3.10;1.70;;;;;;;26.77;53.39;92995.78;5030845;28;20103;-91
2021/07/06 09:33:57;;;;;;;2.17;1.08;;;;;;;27.06;52.10;92989.00;5030557;28;20509;-90
2021/07/06 09:36:33;;;;;;;1.40;1.10;;;;;;;27.54;50.07;92994.88;5030680;28;20095;-86
2021/07/06 09:39:08;;;;;;;;;;;;;;;27.21;50.77;92993.72;5030964;28;20053;-90
2021/07/06 09:41:35;;;;;;;1.90;1.05;;;;;;;27.53;51.50;92996.00;5030717;28;19932;-91
2021/07/06 09:44:24;;;;;;;1.67;0.80;;;;;;;28.20;48.03;92987.38;5030559;28;20049;-89
2021/07/06 09:46:54;;;;;;;3.53;1.60;;;;;;;28.89;48.58;92983.53;5030397;28;20042;-88
2021/07/06 09:49:23;;;;;;;1.92;0.90;;;;;;;29.48;48.03;92978.78;5030373;28;20057;-83
2021/07/06 09:51:50;;;;;;;2.00;0.90;;;;;;;29.92;46.14;92987.94;5030568;28;20054;-91
2021/07/06 09:54:33;;;;;;;1.58;1.13;;;;;;;30.11;45.52;92980.16;5030460;28;20084;-86
2021/07/06 09:57:13;;;;;;;1.42;0.68;;;;;;;30.50;46.31;92981.50;5030391;28;20467;-88
2021/07/06 09:59:57;;;;;;;1.80;0.73;;;;;;;29.95;43.23;92977.44;5030322;28;20060;-87
2021/07/06 10:02:24;;;;;;;1.63;0.80;;;;;;;30.05;43.45;92988.66;5030445;28;20050;-85
2021/07/06 10:04:54;;;;;;;2.33;1.65;;;;;;;29.29;43.50;92980.19;5031790;28;20049;-86
2021/07/06 10:07:21;;;;;;;1.77;1.00;;;;;;;29.32;45.40;92986.69;5033981;28;20104;-86
2021/07/06 10:09:50;;;;;;;3.05;0.95;;;;;;;29.34;46.03;92987.88;5034065;28;20053;-85
2021/07/06 10:12:19;;;;;;;1.33;0.73;;;;;;;28.91;44.83;92989.25;5033846;28;20042;-81
2021/07/06 10:14:46;;;;;;;1.35;0.70;;;;;;;28.85;45.56;92982.63;5031167;28;20417;-86
2021/07/06 10:17:14;;;;;;;1.88;1.00;;;;;;;28.36;45.38;92998.09;5034080;28;20061;-86
2021/07/06 10:19:42;;;;;;;1.63;1.10;;;;;;;27.97;45.46;92997.53;5033987;28;20053;-85
2021/07/06 10:22:09;;;;;;;1.75;0.80;;;;;;;27.88;44.83;92987.06;5033741;28;20119;-86
2021/07/06 10:24:38;;;;;;;1.55;0.95;;;;;;;28.58;44.70;92987.44;5033718;28;20115;-89
2021/07/06 10:27:08;;;;;;;1.33;0.73;;;;;;;29.29;42.73;92982.81;5033576;28;20140;-84
2021/07/06 10:29:36;;;;;;;0.98;0.60;;;;;;;30.03;42.50;92981.06;5033826;28;20056;-88
2021/07/06 10:32:03;;;;;;;0.85;0.50;;;;;;;29.76;39.05;92977.31;5033705;28;20108;-87
2021/07/06 10:34:41;;;;;;;1.67;0.95;;;;;;;29.53;38.96;92978.59;5033540;28;20049;-85
2021/07/06 10:37:28;;;;;;;1.25;0.60;;;;;;;29.82;40.75;92968.81;5033444;28;20505;-85
2021/07/06 10:39:55;;;;;;;1.17;0.40;;;;;;;30.52;40.25;92981.91;5033318;28;20092;-87
2021/07/06 10:42:38;;;;;;;7.88;0.90;;;;;;;30.69;38.40;92977.38;5033382;28;20103;-86
2021/07/06 10:45:15;;;;;;;2.08;0.70;;;;;;;30.53;37.65;92964.91;5033375;28;20149;-85
2021/07/06 10:47:46;;;;;;;1.15;0.60;;;;;;;30.63;39.49;92964.38;5033042;28;20049;-84
2021/07/06 10:50:47;;;;;;;1.67;0.90;;;;;;;29.60;39.92;92973.53;5033097;28;20486;-87
2021/07/06 10:53:19;;;;;;;1.45;0.73;;;;;;;29.80;40.92;92972.91;5033113;28;20049;-87
2021/07/06 10:55:57;;;;;;;2.03;0.60;;;;;;;29.49;40.46;92966.38;5033182;28;20049;-86
2021/07/06 10:58:51;;;;;;;0.77;0.40;;;;;;;29.44;38.41;92965.47;5033030;28;20065;-87
2021/07/06 11:02:07;;;;;;;1.95;1.00;;;;;;;29.70;39.09;92969.63;5032916;28;20049;-86
2021/07/06 11:05:05;;;;;;;1.27;0.60;;;;;;;29.70;39.83;92968.84;5032797;28;20404;-88
2021/07/06 11:07:48;;;;;;;1.52;0.80;;;;;;;30.00;39.94;92971.91;5032918;28;20049;-86
2021/07/06 11:10:16;;;;;;;1.20;0.68;;;;;;;30.33;38.64;92969.34;5032970;28;20128;-86
2021/07/06 11:12:45;;;;;;;2.20;1.52;;;;;;;30.64;36.98;92962.50;5032651;28;20089;-85
2021/07/06 11:15:27;;;;;;;2.20;0.93;;;;;;;31.14;36.17;92962.88;5032827;28;20060;-86
2021/07/06 11:18:03;;;;;;;1.73;0.90;;;;;;;30.42;39.02;92959.34;5032924;28;20060;-88
2021/07/06 11:20:39;;;;;;;1.73;0.77;;;;;;;29.70;39.50;92964.31;5033011;28;20042;-84
2021/07/06 11:23:08;;;;;;;0.93;0.70;;;;;;;29.53;39.84;92964.59;5028908;28;20445;-88
2021/07/06 11:25:41;;;;;;;1.70;0.73;;;;;;;29.82;38.23;92963.53;5022756;28;20061;-85
2021/07/06 11:28:12;;;;;;;1.48;0.82;;;;;;;29.47;39.58;92964.03;5022016;28;20567;-84
2021/07/06 11:30:44;;;;;;;1.23;0.73;;;;;;;30.02;39.26;92958.34;5021175;28;20061;-84
2021/07/06 11:33:12;;;;;;;1.83;0.95;;;;;;;29.76;40.42;92970.13;5021151;28;20049;-82
2021/07/06 11:35:42;;;;;;;1.48;0.95;;;;;;;29.81;39.38;92964.59;5020177;28;20560;-86